sensor_id;sensor_type;location;lat;lon;timestamp;P1;durP1;ratioP1;P2;durP2;ratioP2
41829;SDS011;38614;43.472;23.936;2022-07-01T00:01:38;4.50;;;2.47;;
41829;SDS011;38614;43.472;23.936;2022-07-01T00:04:29;8.25;;;2.75;;
41829;SDS011;38614;43.472;23.936;2022-07-01T00:07:36;4.25;;;2.83;;
41829;SDS011;38614;43.472;23.936;2022-07-01T00:10:24;4.35;;;2.33;;
41829;SDS011;38614;43.472;23.936;2022-07-01T00:13:12;6.53;;;2.85;;
41829;SDS011;38614;43.472;23.936;2022-07-01T00:15:59;5.13;;;2.92;;
41829;SDS011;38614;43.472;23.936;2022-07-01T00:18:47;4.63;;;2.00;;
41829;SDS011;38614;43.472;23.936;2022-07-01T00:21:35;3.15;;;2.25;;
41829;SDS011;38614;43.472;23.936;2022-07-01T00:24:23;7.18;;;2.50;;
41829;SDS011;38614;43.472;23.936;2022-07-01T00:27:11;7.68;;;2.60;;
41829;SDS011;38614;43.472;23.936;2022-07-01T00:30:00;7.03;;;2.53;;
41829;SDS011;38614;43.472;23.936;2022-07-01T00:32:47;7.95;;;2.45;;
41829;SDS011;38614;43.472;23.936;2022-07-01T00:35:35;2.58;;;1.90;;
41829;SDS011;38614;43.472;23.936;2022-07-01T00:38:23;2.70;;;2.03;;
41829;SDS011;38614;43.472;23.936;2022-07-01T00:41:11;7.25;;;2.03;;
41829;SDS011;38614;43.472;23.936;2022-07-01T00:43:59;4.03;;;2.05;;
41829;SDS011;38614;43.472;23.936;2022-07-01T00:46:47;8.13;;;2.58;;
41829;SDS011;38614;43.472;23.936;2022-07-01T00:49:38;7.87;;;2.20;;
41829;SDS011;38614;43.472;23.936;2022-07-01T00:52:26;4.43;;;1.85;;
41829;SDS011;38614;43.472;23.936;2022-07-01T00:55:16;4.32;;;1.70;;
41829;SDS011;38614;43.472;23.936;2022-07-01T00:58:03;2.95;;;1.92;;
41829;SDS011;38614;43.472;23.936;2022-07-01T01:00:51;2.22;;;1.65;;
41829;SDS011;38614;43.472;23.936;2022-07-01T01:03:39;2.85;;;1.77;;
41829;SDS011;38614;43.472;23.936;2022-07-01T01:06:27;4.80;;;2.22;;
41829;SDS011;38614;43.472;23.936;2022-07-01T01:09:15;3.15;;;1.75;;
41829;SDS011;38614;43.472;23.936;2022-07-01T01:12:02;3.67;;;2.15;;
41829;SDS011;38614;43.472;23.936;2022-07-01T01:14:50;3.47;;;2.20;;
41829;SDS011;38614;43.472;23.936;2022-07-01T01:17:39;3.67;;;1.90;;
41829;SDS011;38614;43.472;23.936;2022-07-01T01:20:31;2.63;;;1.95;;
41829;SDS011;38614;43.472;23.936;2022-07-01T01:23:21;4.65;;;2.42;;
41829;SDS011;38614;43.472;23.936;2022-07-01T01:26:15;9.27;;;2.17;;
41829;SDS011;38614;43.472;23.936;2022-07-01T01:29:07;5.88;;;2.90;;
41829;SDS011;38614;43.472;23.936;2022-07-01T01:31:55;9.65;;;2.60;;
41829;SDS011;38614;43.472;23.936;2022-07-01T01:34:43;11.10;;;2.35;;
41829;SDS011;38614;43.472;23.936;2022-07-01T01:37:31;1.48;;;1.38;;
41829;SDS011;38614;43.472;23.936;2022-07-01T01:40:18;8.20;;;2.50;;
41829;SDS011;38614;43.472;23.936;2022-07-01T01:43:06;4.80;;;2.33;;
41829;SDS011;38614;43.472;23.936;2022-07-01T01:45:53;3.58;;;1.55;;
41829;SDS011;38614;43.472;23.936;2022-07-01T01:48:41;5.82;;;1.80;;
41829;SDS011;38614;43.472;23.936;2022-07-01T01:51:29;3.75;;;2.05;;
41829;SDS011;38614;43.472;23.936;2022-07-01T01:54:16;2.88;;;2.58;;
41829;SDS011;38614;43.472;23.936;2022-07-01T01:57:04;2.92;;;2.53;;
41829;SDS011;38614;43.472;23.936;2022-07-01T01:59:52;5.40;;;2.90;;
41829;SDS011;38614;43.472;23.936;2022-07-01T02:02:39;4.00;;;2.80;;
41829;SDS011;38614;43.472;23.936;2022-07-01T02:05:27;5.85;;;3.05;;
41829;SDS011;38614;43.472;23.936;2022-07-01T02:08:15;3.78;;;2.28;;
41829;SDS011;38614;43.472;23.936;2022-07-01T02:11:03;3.17;;;2.63;;
41829;SDS011;38614;43.472;23.936;2022-07-01T02:13:51;9.93;;;6.88;;
41829;SDS011;38614;43.472;23.936;2022-07-01T02:16:39;19.13;;;10.13;;
41829;SDS011;38614;43.472;23.936;2022-07-01T02:19:26;26.23;;;14.00;;
41829;SDS011;38614;43.472;23.936;2022-07-01T02:22:15;15.05;;;9.15;;
41829;SDS011;38614;43.472;23.936;2022-07-01T02:25:03;9.93;;;5.88;;
41829;SDS011;38614;43.472;23.936;2022-07-01T02:27:51;11.05;;;5.10;;
41829;SDS011;38614;43.472;23.936;2022-07-01T02:30:38;5.18;;;4.10;;
41829;SDS011;38614;43.472;23.936;2022-07-01T02:33:26;4.53;;;4.03;;
41829;SDS011;38614;43.472;23.936;2022-07-01T02:36:13;4.57;;;3.70;;
41829;SDS011;38614;43.472;23.936;2022-07-01T02:39:01;6.93;;;3.75;;
41829;SDS011;38614;43.472;23.936;2022-07-01T02:41:50;5.10;;;3.38;;
41829;SDS011;38614;43.472;23.936;2022-07-01T02:44:56;3.22;;;2.85;;
41829;SDS011;38614;43.472;23.936;2022-07-01T02:47:44;7.55;;;3.38;;
41829;SDS011;38614;43.472;23.936;2022-07-01T02:50:32;5.68;;;3.35;;
41829;SDS011;38614;43.472;23.936;2022-07-01T02:53:19;4.03;;;2.88;;
41829;SDS011;38614;43.472;23.936;2022-07-01T02:56:07;5.70;;;3.55;;
41829;SDS011;38614;43.472;23.936;2022-07-01T02:58:54;4.63;;;3.17;;
41829;SDS011;38614;43.472;23.936;2022-07-01T03:01:42;9.30;;;3.55;;
41829;SDS011;38614;43.472;23.936;2022-07-01T03:04:30;4.20;;;2.95;;
41829;SDS011;38614;43.472;23.936;2022-07-01T03:07:18;7.40;;;2.30;;
41829;SDS011;38614;43.472;23.936;2022-07-01T03:10:08;13.07;;;3.35;;
41829;SDS011;38614;43.472;23.936;2022-07-01T03:12:57;5.75;;;3.45;;
41829;SDS011;38614;43.472;23.936;2022-07-01T03:15:46;3.70;;;2.55;;
41829;SDS011;38614;43.472;23.936;2022-07-01T03:18:34;2.85;;;2.63;;
41829;SDS011;38614;43.472;23.936;2022-07-01T03:21:21;6.28;;;2.92;;
41829;SDS011;38614;43.472;23.936;2022-07-01T03:24:09;4.80;;;2.80;;
41829;SDS011;38614;43.472;23.936;2022-07-01T03:26:57;7.10;;;3.38;;
41829;SDS011;38614;43.472;23.936;2022-07-01T03:29:46;3.45;;;2.95;;
41829;SDS011;38614;43.472;23.936;2022-07-01T03:32:34;4.75;;;3.35;;
41829;SDS011;38614;43.472;23.936;2022-07-01T03:35:22;6.78;;;3.78;;
41829;SDS011;38614;43.472;23.936;2022-07-01T03:38:32;12.07;;;3.47;;
41829;SDS011;38614;43.472;23.936;2022-07-01T03:41:20;6.07;;;3.22;;
41829;SDS011;38614;43.472;23.936;2022-07-01T03:44:08;5.88;;;3.33;;
41829;SDS011;38614;43.472;23.936;2022-07-01T03:46:55;8.30;;;3.63;;
41829;SDS011;38614;43.472;23.936;2022-07-01T03:49:44;3.60;;;2.78;;
41829;SDS011;38614;43.472;23.936;2022-07-01T03:52:31;6.57;;;3.20;;
41829;SDS011;38614;43.472;23.936;2022-07-01T03:55:20;4.88;;;3.15;;
41829;SDS011;38614;43.472;23.936;2022-07-01T03:58:09;3.85;;;3.22;;
41829;SDS011;38614;43.472;23.936;2022-07-01T04:00:57;4.35;;;3.30;;
41829;SDS011;38614;43.472;23.936;2022-07-01T04:03:45;6.82;;;3.55;;
41829;SDS011;38614;43.472;23.936;2022-07-01T04:06:33;6.97;;;3.63;;
41829;SDS011;38614;43.472;23.936;2022-07-01T04:09:21;5.75;;;3.33;;
41829;SDS011;38614;43.472;23.936;2022-07-01T04:12:10;7.32;;;4.30;;
41829;SDS011;38614;43.472;23.936;2022-07-01T04:14:59;8.05;;;3.50;;
41829;SDS011;38614;43.472;23.936;2022-07-01T04:17:47;4.38;;;3.33;;
41829;SDS011;38614;43.472;23.936;2022-07-01T04:20:34;3.47;;;3.28;;
41829;SDS011;38614;43.472;23.936;2022-07-01T04:23:30;7.72;;;3.30;;
41829;SDS011;38614;43.472;23.936;2022-07-01T04:26:20;6.32;;;4.13;;
41829;SDS011;38614;43.472;23.936;2022-07-01T04:29:27;7.40;;;3.53;;
41829;SDS011;38614;43.472;23.936;2022-07-01T04:32:16;6.95;;;3.97;;
41829;SDS011;38614;43.472;23.936;2022-07-01T04:35:07;7.18;;;3.78;;
41829;SDS011;38614;43.472;23.936;2022-07-01T04:38:00;13.73;;;3.78;;
41829;SDS011;38614;43.472;23.936;2022-07-01T04:40:56;7.10;;;5.82;;
41829;SDS011;38614;43.472;23.936;2022-07-01T04:44:03;8.02;;;4.05;;
41829;SDS011;38614;43.472;23.936;2022-07-01T04:46:51;4.53;;;3.67;;
41829;SDS011;38614;43.472;23.936;2022-07-01T04:49:38;11.20;;;4.25;;
41829;SDS011;38614;43.472;23.936;2022-07-01T04:52:27;4.95;;;3.53;;
41829;SDS011;38614;43.472;23.936;2022-07-01T04:55:18;9.07;;;3.63;;
41829;SDS011;38614;43.472;23.936;2022-07-01T04:58:06;4.18;;;2.92;;
41829;SDS011;38614;43.472;23.936;2022-07-01T05:00:56;4.05;;;2.67;;
41829;SDS011;38614;43.472;23.936;2022-07-01T05:03:44;9.13;;;3.45;;
41829;SDS011;38614;43.472;23.936;2022-07-01T05:06:38;19.30;;;4.27;;
41829;SDS011;38614;43.472;23.936;2022-07-01T05:09:28;23.58;;;4.03;;
41829;SDS011;38614;43.472;23.936;2022-07-01T05:12:19;7.43;;;2.83;;
41829;SDS011;38614;43.472;23.936;2022-07-01T05:15:07;9.18;;;3.63;;
41829;SDS011;38614;43.472;23.936;2022-07-01T05:17:56;7.55;;;4.15;;
41829;SDS011;38614;43.472;23.936;2022-07-01T05:21:02;3.90;;;3.58;;
41829;SDS011;38614;43.472;23.936;2022-07-01T05:24:14;7.22;;;3.80;;
41829;SDS011;38614;43.472;23.936;2022-07-01T05:27:06;3.42;;;3.13;;
41829;SDS011;38614;43.472;23.936;2022-07-01T05:29:56;4.25;;;3.80;;
41829;SDS011;38614;43.472;23.936;2022-07-01T05:32:46;4.28;;;3.58;;
41829;SDS011;38614;43.472;23.936;2022-07-01T05:35:37;8.27;;;4.50;;
41829;SDS011;38614;43.472;23.936;2022-07-01T05:38:25;7.35;;;3.70;;
41829;SDS011;38614;43.472;23.936;2022-07-01T05:41:12;4.25;;;3.85;;
41829;SDS011;38614;43.472;23.936;2022-07-01T05:44:00;9.10;;;4.03;;
41829;SDS011;38614;43.472;23.936;2022-07-01T05:46:51;9.18;;;3.55;;
41829;SDS011;38614;43.472;23.936;2022-07-01T05:49:42;4.18;;;3.13;;
41829;SDS011;38614;43.472;23.936;2022-07-01T05:52:30;9.75;;;3.63;;
41829;SDS011;38614;43.472;23.936;2022-07-01T05:55:17;18.42;;;3.20;;
41829;SDS011;38614;43.472;23.936;2022-07-01T05:58:05;6.55;;;3.63;;
41829;SDS011;38614;43.472;23.936;2022-07-01T06:00:56;3.80;;;3.50;;
41829;SDS011;38614;43.472;23.936;2022-07-01T06:03:57;4.15;;;2.78;;
41829;SDS011;38614;43.472;23.936;2022-07-01T06:06:45;7.40;;;3.03;;
41829;SDS011;38614;43.472;23.936;2022-07-01T06:09:33;9.57;;;2.92;;
41829;SDS011;38614;43.472;23.936;2022-07-01T06:12:20;7.43;;;2.55;;
41829;SDS011;38614;43.472;23.936;2022-07-01T06:15:09;3.80;;;2.70;;
41829;SDS011;38614;43.472;23.936;2022-07-01T06:17:58;2.95;;;2.75;;
41829;SDS011;38614;43.472;23.936;2022-07-01T06:20:46;3.63;;;2.85;;
41829;SDS011;38614;43.472;23.936;2022-07-01T06:23:34;3.97;;;2.65;;
41829;SDS011;38614;43.472;23.936;2022-07-01T06:26:22;4.68;;;2.53;;
41829;SDS011;38614;43.472;23.936;2022-07-01T06:29:09;3.42;;;2.78;;
41829;SDS011;38614;43.472;23.936;2022-07-01T06:31:58;6.97;;;1.85;;
41829;SDS011;38614;43.472;23.936;2022-07-01T06:34:50;7.57;;;2.05;;
41829;SDS011;38614;43.472;23.936;2022-07-01T06:37:39;4.32;;;3.05;;
41829;SDS011;38614;43.472;23.936;2022-07-01T06:40:32;2.50;;;1.92;;
41829;SDS011;38614;43.472;23.936;2022-07-01T06:43:19;5.00;;;1.60;;
41829;SDS011;38614;43.472;23.936;2022-07-01T06:46:12;4.63;;;1.98;;
41829;SDS011;38614;43.472;23.936;2022-07-01T06:48:59;2.83;;;1.42;;
41829;SDS011;38614;43.472;23.936;2022-07-01T06:51:47;4.63;;;1.55;;
41829;SDS011;38614;43.472;23.936;2022-07-01T06:54:35;7.28;;;1.65;;
41829;SDS011;38614;43.472;23.936;2022-07-01T06:57:26;4.30;;;1.73;;
41829;SDS011;38614;43.472;23.936;2022-07-01T07:00:14;1.98;;;1.60;;
41829;SDS011;38614;43.472;23.936;2022-07-01T07:03:02;5.13;;;1.70;;
41829;SDS011;38614;43.472;23.936;2022-07-01T07:05:51;2.92;;;2.08;;
41829;SDS011;38614;43.472;23.936;2022-07-01T07:08:39;1.88;;;1.60;;
41829;SDS011;38614;43.472;23.936;2022-07-01T07:11:27;2.50;;;1.80;;
41829;SDS011;38614;43.472;23.936;2022-07-01T07:14:15;6.25;;;1.80;;
41829;SDS011;38614;43.472;23.936;2022-07-01T07:17:03;2.67;;;1.30;;
41829;SDS011;38614;43.472;23.936;2022-07-01T07:19:51;4.25;;;1.35;;
41829;SDS011;38614;43.472;23.936;2022-07-01T07:22:39;4.65;;;1.60;;
41829;SDS011;38614;43.472;23.936;2022-07-01T07:25:26;2.70;;;1.70;;
41829;SDS011;38614;43.472;23.936;2022-07-01T07:28:14;2.80;;;0.95;;
41829;SDS011;38614;43.472;23.936;2022-07-01T07:31:02;2.35;;;1.27;;
41829;SDS011;38614;43.472;23.936;2022-07-01T07:33:50;2.28;;;1.05;;
41829;SDS011;38614;43.472;23.936;2022-07-01T07:36:38;3.33;;;0.80;;
41829;SDS011;38614;43.472;23.936;2022-07-01T07:39:25;8.75;;;0.82;;
41829;SDS011;38614;43.472;23.936;2022-07-01T07:42:18;1.85;;;1.23;;
41829;SDS011;38614;43.472;23.936;2022-07-01T07:45:07;7.43;;;1.13;;
41829;SDS011;38614;43.472;23.936;2022-07-01T07:47:55;4.00;;;0.60;;
41829;SDS011;38614;43.472;23.936;2022-07-01T07:50:43;0.73;;;0.52;;
41829;SDS011;38614;43.472;23.936;2022-07-01T07:53:30;7.15;;;1.23;;
41829;SDS011;38614;43.472;23.936;2022-07-01T07:56:19;1.80;;;1.00;;
41829;SDS011;38614;43.472;23.936;2022-07-01T07:59:07;1.27;;;0.82;;
41829;SDS011;38614;43.472;23.936;2022-07-01T08:01:55;3.50;;;1.00;;
41829;SDS011;38614;43.472;23.936;2022-07-01T08:04:42;5.55;;;0.90;;
41829;SDS011;38614;43.472;23.936;2022-07-01T08:07:34;8.65;;;0.80;;
41829;SDS011;38614;43.472;23.936;2022-07-01T08:13:10;5.10;;;0.45;;
41829;SDS011;38614;43.472;23.936;2022-07-01T08:16:01;4.53;;;0.82;;
41829;SDS011;38614;43.472;23.936;2022-07-01T08:18:48;3.45;;;0.80;;
41829;SDS011;38614;43.472;23.936;2022-07-01T08:21:36;5.40;;;1.13;;
41829;SDS011;38614;43.472;23.936;2022-07-01T08:24:27;0.70;;;0.55;;
41829;SDS011;38614;43.472;23.936;2022-07-01T08:27:14;6.43;;;0.95;;
41829;SDS011;38614;43.472;23.936;2022-07-01T08:30:05;1.58;;;0.60;;
41829;SDS011;38614;43.472;23.936;2022-07-01T08:32:57;1.17;;;0.77;;
41829;SDS011;38614;43.472;23.936;2022-07-01T08:35:44;3.55;;;0.82;;
41829;SDS011;38614;43.472;23.936;2022-07-01T08:38:35;5.55;;;1.52;;
41829;SDS011;38614;43.472;23.936;2022-07-01T08:41:32;4.18;;;0.73;;
41829;SDS011;38614;43.472;23.936;2022-07-01T08:44:22;4.43;;;0.88;;
41829;SDS011;38614;43.472;23.936;2022-07-01T08:47:19;2.90;;;1.58;;
41829;SDS011;38614;43.472;23.936;2022-07-01T08:50:12;3.95;;;1.00;;
41829;SDS011;38614;43.472;23.936;2022-07-01T08:52:59;2.70;;;0.60;;
41829;SDS011;38614;43.472;23.936;2022-07-01T08:55:47;5.32;;;0.80;;
41829;SDS011;38614;43.472;23.936;2022-07-01T08:58:53;5.78;;;0.80;;
41829;SDS011;38614;43.472;23.936;2022-07-01T09:01:41;4.05;;;1.00;;
41829;SDS011;38614;43.472;23.936;2022-07-01T09:04:32;7.90;;;0.50;;
41829;SDS011;38614;43.472;23.936;2022-07-01T09:07:30;1.25;;;0.88;;
41829;SDS011;38614;43.472;23.936;2022-07-01T09:10:21;3.08;;;0.73;;
41829;SDS011;38614;43.472;23.936;2022-07-01T09:13:09;0.83;;;0.60;;
41829;SDS011;38614;43.472;23.936;2022-07-01T09:16:00;4.40;;;0.93;;
41829;SDS011;38614;43.472;23.936;2022-07-01T09:19:00;5.20;;;1.05;;
41829;SDS011;38614;43.472;23.936;2022-07-01T09:21:54;2.25;;;1.17;;
41829;SDS011;38614;43.472;23.936;2022-07-01T09:24:50;3.65;;;0.93;;
41829;SDS011;38614;43.472;23.936;2022-07-01T09:27:41;7.70;;;0.57;;
41829;SDS011;38614;43.472;23.936;2022-07-01T09:30:31;6.57;;;0.80;;
41829;SDS011;38614;43.472;23.936;2022-07-01T09:33:21;1.42;;;0.70;;
41829;SDS011;38614;43.472;23.936;2022-07-01T09:36:09;1.88;;;1.17;;
41829;SDS011;38614;43.472;23.936;2022-07-01T09:39:02;2.17;;;0.68;;
41829;SDS011;38614;43.472;23.936;2022-07-01T09:42:10;2.03;;;0.68;;
41829;SDS011;38614;43.472;23.936;2022-07-01T09:45:03;2.15;;;0.60;;
41829;SDS011;38614;43.472;23.936;2022-07-01T09:47:56;2.38;;;0.73;;
41829;SDS011;38614;43.472;23.936;2022-07-01T09:53:36;0.90;;;0.75;;
41829;SDS011;38614;43.472;23.936;2022-07-01T09:56:23;1.13;;;0.60;;
41829;SDS011;38614;43.472;23.936;2022-07-01T09:59:11;4.25;;;1.13;;
41829;SDS011;38614;43.472;23.936;2022-07-01T10:02:00;12.20;;;1.45;;
41829;SDS011;38614;43.472;23.936;2022-07-01T10:04:53;8.13;;;0.70;;
41829;SDS011;38614;43.472;23.936;2022-07-01T10:08:04;1.00;;;0.90;;
41829;SDS011;38614;43.472;23.936;2022-07-01T10:13:48;1.13;;;0.77;;
41829;SDS011;38614;43.472;23.936;2022-07-01T10:16:39;1.92;;;0.80;;
41829;SDS011;38614;43.472;23.936;2022-07-01T10:19:30;8.80;;;0.88;;
41829;SDS011;38614;43.472;23.936;2022-07-01T10:22:30;15.68;;;1.38;;
41829;SDS011;38614;43.472;23.936;2022-07-01T10:25:32;1.90;;;0.88;;
41829;SDS011;38614;43.472;23.936;2022-07-01T10:31:15;5.38;;;0.88;;
41829;SDS011;38614;43.472;23.936;2022-07-01T10:34:03;4.00;;;1.25;;
41829;SDS011;38614;43.472;23.936;2022-07-01T10:37:00;4.75;;;0.77;;
41829;SDS011;38614;43.472;23.936;2022-07-01T10:40:02;3.22;;;0.68;;
41829;SDS011;38614;43.472;23.936;2022-07-01T10:42:59;2.28;;;0.70;;
41829;SDS011;38614;43.472;23.936;2022-07-01T10:46:05;0.63;;;0.63;;
41829;SDS011;38614;43.472;23.936;2022-07-01T10:48:53;7.32;;;1.05;;
41829;SDS011;38614;43.472;23.936;2022-07-01T10:51:50;5.43;;;1.10;;
41829;SDS011;38614;43.472;23.936;2022-07-01T10:57:33;1.55;;;0.82;;
41829;SDS011;38614;43.472;23.936;2022-07-01T11:00:29;1.63;;;0.77;;
41829;SDS011;38614;43.472;23.936;2022-07-01T11:03:20;1.48;;;1.02;;
41829;SDS011;38614;43.472;23.936;2022-07-01T11:06:08;2.65;;;0.65;;
41829;SDS011;38614;43.472;23.936;2022-07-01T11:08:55;2.22;;;0.75;;
41829;SDS011;38614;43.472;23.936;2022-07-01T11:11:50;4.32;;;0.73;;
41829;SDS011;38614;43.472;23.936;2022-07-01T11:14:43;5.68;;;2.60;;
41829;SDS011;38614;43.472;23.936;2022-07-01T11:17:33;4.75;;;1.05;;
41829;SDS011;38614;43.472;23.936;2022-07-01T11:20:22;7.03;;;2.10;;
41829;SDS011;38614;43.472;23.936;2022-07-01T11:23:13;1.33;;;0.73;;
41829;SDS011;38614;43.472;23.936;2022-07-01T11:26:00;3.90;;;1.52;;
41829;SDS011;38614;43.472;23.936;2022-07-01T11:28:48;7.55;;;1.65;;
41829;SDS011;38614;43.472;23.936;2022-07-01T11:31:36;1.15;;;0.50;;
41829;SDS011;38614;43.472;23.936;2022-07-01T11:34:26;9.02;;;1.30;;
41829;SDS011;38614;43.472;23.936;2022-07-01T11:37:13;3.77;;;0.77;;
41829;SDS011;38614;43.472;23.936;2022-07-01T11:40:19;4.47;;;2.00;;
41829;SDS011;38614;43.472;23.936;2022-07-01T11:43:20;14.43;;;1.27;;
41829;SDS011;38614;43.472;23.936;2022-07-01T11:46:08;6.13;;;1.20;;
41829;SDS011;38614;43.472;23.936;2022-07-01T11:48:56;5.55;;;1.10;;
41829;SDS011;38614;43.472;23.936;2022-07-01T11:51:43;5.80;;;1.42;;
41829;SDS011;38614;43.472;23.936;2022-07-01T11:54:41;3.25;;;0.82;;
41829;SDS011;38614;43.472;23.936;2022-07-01T11:57:29;2.20;;;0.93;;
41829;SDS011;38614;43.472;23.936;2022-07-01T12:00:16;8.38;;;0.70;;
41829;SDS011;38614;43.472;23.936;2022-07-01T12:03:09;3.33;;;0.93;;
41829;SDS011;38614;43.472;23.936;2022-07-01T12:05:58;7.55;;;0.98;;
41829;SDS011;38614;43.472;23.936;2022-07-01T12:08:46;2.05;;;1.30;;
41829;SDS011;38614;43.472;23.936;2022-07-01T12:11:34;1.30;;;0.55;;
41829;SDS011;38614;43.472;23.936;2022-07-01T12:14:27;4.40;;;0.77;;
41829;SDS011;38614;43.472;23.936;2022-07-01T12:17:15;4.90;;;0.97;;
41829;SDS011;38614;43.472;23.936;2022-07-01T12:20:04;0.82;;;0.73;;
41829;SDS011;38614;43.472;23.936;2022-07-01T12:22:51;9.50;;;1.75;;
41829;SDS011;38614;43.472;23.936;2022-07-01T12:25:39;3.90;;;0.85;;
41829;SDS011;38614;43.472;23.936;2022-07-01T12:28:44;4.07;;;1.13;;
41829;SDS011;38614;43.472;23.936;2022-07-01T12:31:33;6.43;;;0.95;;
41829;SDS011;38614;43.472;23.936;2022-07-01T12:34:23;3.33;;;1.07;;
41829;SDS011;38614;43.472;23.936;2022-07-01T12:37:14;4.43;;;1.05;;
41829;SDS011;38614;43.472;23.936;2022-07-01T12:40:08;7.05;;;1.00;;
41829;SDS011;38614;43.472;23.936;2022-07-01T12:42:56;8.02;;;1.35;;
41829;SDS011;38614;43.472;23.936;2022-07-01T12:45:47;2.67;;;1.05;;
41829;SDS011;38614;43.472;23.936;2022-07-01T12:48:47;4.63;;;1.20;;
41829;SDS011;38614;43.472;23.936;2022-07-01T12:51:35;4.22;;;1.30;;
41829;SDS011;38614;43.472;23.936;2022-07-01T12:54:32;1.45;;;0.80;;
41829;SDS011;38614;43.472;23.936;2022-07-01T12:57:33;2.60;;;1.08;;
41829;SDS011;38614;43.472;23.936;2022-07-01T13:00:25;7.43;;;0.90;;
41829;SDS011;38614;43.472;23.936;2022-07-01T13:03:17;1.95;;;1.15;;
41829;SDS011;38614;43.472;23.936;2022-07-01T13:06:05;5.45;;;1.30;;
41829;SDS011;38614;43.472;23.936;2022-07-01T13:08:52;1.23;;;1.10;;
41829;SDS011;38614;43.472;23.936;2022-07-01T13:11:41;2.05;;;1.17;;
41829;SDS011;38614;43.472;23.936;2022-07-01T13:17:18;9.75;;;1.25;;
41829;SDS011;38614;43.472;23.936;2022-07-01T13:20:07;2.85;;;1.10;;
41829;SDS011;38614;43.472;23.936;2022-07-01T13:22:55;3.10;;;0.85;;
41829;SDS011;38614;43.472;23.936;2022-07-01T13:25:43;1.17;;;0.90;;
41829;SDS011;38614;43.472;23.936;2022-07-01T13:28:30;10.05;;;1.38;;
41829;SDS011;38614;43.472;23.936;2022-07-01T13:31:20;3.75;;;0.82;;
41829;SDS011;38614;43.472;23.936;2022-07-01T13:34:07;1.08;;;1.02;;
41829;SDS011;38614;43.472;23.936;2022-07-01T13:36:55;3.10;;;1.10;;
41829;SDS011;38614;43.472;23.936;2022-07-01T13:39:44;1.83;;;1.13;;
41829;SDS011;38614;43.472;23.936;2022-07-01T13:42:31;1.10;;;0.85;;
41829;SDS011;38614;43.472;23.936;2022-07-01T13:45:19;5.32;;;2.15;;
41829;SDS011;38614;43.472;23.936;2022-07-01T13:48:06;6.82;;;0.85;;
41829;SDS011;38614;43.472;23.936;2022-07-01T13:50:54;2.40;;;0.98;;
41829;SDS011;38614;43.472;23.936;2022-07-01T13:53:42;5.60;;;1.30;;
41829;SDS011;38614;43.472;23.936;2022-07-01T13:56:29;1.58;;;0.93;;
41829;SDS011;38614;43.472;23.936;2022-07-01T13:59:16;2.63;;;1.13;;
41829;SDS011;38614;43.472;23.936;2022-07-01T14:02:04;3.38;;;0.80;;
41829;SDS011;38614;43.472;23.936;2022-07-01T14:04:52;3.33;;;0.93;;
41829;SDS011;38614;43.472;23.936;2022-07-01T14:07:40;1.00;;;0.70;;
41829;SDS011;38614;43.472;23.936;2022-07-01T14:10:27;2.65;;;1.05;;
41829;SDS011;38614;43.472;23.936;2022-07-01T14:13:15;1.77;;;1.02;;
41829;SDS011;38614;43.472;23.936;2022-07-01T14:16:04;4.53;;;1.08;;
41829;SDS011;38614;43.472;23.936;2022-07-01T14:18:57;2.78;;;0.90;;
41829;SDS011;38614;43.472;23.936;2022-07-01T14:21:44;6.70;;;1.83;;
41829;SDS011;38614;43.472;23.936;2022-07-01T14:24:34;5.95;;;1.48;;
41829;SDS011;38614;43.472;23.936;2022-07-01T14:27:22;3.38;;;1.30;;
41829;SDS011;38614;43.472;23.936;2022-07-01T14:30:11;4.40;;;0.70;;
41829;SDS011;38614;43.472;23.936;2022-07-01T14:32:59;5.55;;;1.00;;
41829;SDS011;38614;43.472;23.936;2022-07-01T14:38:41;3.70;;;1.00;;
41829;SDS011;38614;43.472;23.936;2022-07-01T14:41:29;5.95;;;1.30;;
41829;SDS011;38614;43.472;23.936;2022-07-01T14:44:17;1.80;;;1.00;;
41829;SDS011;38614;43.472;23.936;2022-07-01T14:47:05;7.00;;;1.60;;
41829;SDS011;38614;43.472;23.936;2022-07-01T14:49:52;4.88;;;0.70;;
41829;SDS011;38614;43.472;23.936;2022-07-01T14:52:40;4.28;;;1.10;;
41829;SDS011;38614;43.472;23.936;2022-07-01T14:55:31;4.45;;;1.13;;
41829;SDS011;38614;43.472;23.936;2022-07-01T14:58:37;4.80;;;0.90;;
41829;SDS011;38614;43.472;23.936;2022-07-01T15:01:25;3.78;;;0.70;;
41829;SDS011;38614;43.472;23.936;2022-07-01T15:04:12;2.65;;;1.00;;
41829;SDS011;38614;43.472;23.936;2022-07-01T15:07:00;2.30;;;1.40;;
41829;SDS011;38614;43.472;23.936;2022-07-01T15:09:47;6.57;;;1.15;;
41829;SDS011;38614;43.472;23.936;2022-07-01T15:12:35;6.57;;;0.98;;
41829;SDS011;38614;43.472;23.936;2022-07-01T15:15:23;2.42;;;0.82;;
41829;SDS011;38614;43.472;23.936;2022-07-01T15:18:10;9.45;;;1.15;;
41829;SDS011;38614;43.472;23.936;2022-07-01T15:20:59;4.55;;;1.08;;
41829;SDS011;38614;43.472;23.936;2022-07-01T15:23:46;9.18;;;1.17;;
41829;SDS011;38614;43.472;23.936;2022-07-01T15:26:34;4.40;;;1.00;;
41829;SDS011;38614;43.472;23.936;2022-07-01T15:29:21;2.10;;;0.93;;
41829;SDS011;38614;43.472;23.936;2022-07-01T15:32:09;5.00;;;0.93;;
41829;SDS011;38614;43.472;23.936;2022-07-01T15:34:58;2.03;;;1.10;;
41829;SDS011;38614;43.472;23.936;2022-07-01T15:37:45;4.70;;;1.55;;
41829;SDS011;38614;43.472;23.936;2022-07-01T15:40:33;4.80;;;1.85;;
41829;SDS011;38614;43.472;23.936;2022-07-01T15:43:23;6.30;;;1.38;;
41829;SDS011;38614;43.472;23.936;2022-07-01T15:46:11;8.80;;;1.58;;
41829;SDS011;38614;43.472;23.936;2022-07-01T15:48:59;4.85;;;1.23;;
41829;SDS011;38614;43.472;23.936;2022-07-01T15:54:40;6.55;;;0.95;;
41829;SDS011;38614;43.472;23.936;2022-07-01T15:57:28;5.35;;;1.00;;
41829;SDS011;38614;43.472;23.936;2022-07-01T16:00:18;4.80;;;0.88;;
41829;SDS011;38614;43.472;23.936;2022-07-01T16:03:06;7.30;;;1.63;;
41829;SDS011;38614;43.472;23.936;2022-07-01T16:05:57;9.20;;;1.08;;
41829;SDS011;38614;43.472;23.936;2022-07-01T16:08:47;5.93;;;0.98;;
41829;SDS011;38614;43.472;23.936;2022-07-01T16:11:36;4.18;;;0.90;;
41829;SDS011;38614;43.472;23.936;2022-07-01T16:14:24;2.88;;;1.05;;
41829;SDS011;38614;43.472;23.936;2022-07-01T16:17:12;5.78;;;1.40;;
41829;SDS011;38614;43.472;23.936;2022-07-01T16:20:03;6.30;;;1.53;;
41829;SDS011;38614;43.472;23.936;2022-07-01T16:25:43;4.57;;;1.00;;
41829;SDS011;38614;43.472;23.936;2022-07-01T16:28:32;3.97;;;0.88;;
41829;SDS011;38614;43.472;23.936;2022-07-01T16:31:22;3.83;;;1.13;;
41829;SDS011;38614;43.472;23.936;2022-07-01T16:34:10;3.50;;;1.52;;
41829;SDS011;38614;43.472;23.936;2022-07-01T16:36:57;5.63;;;1.38;;
41829;SDS011;38614;43.472;23.936;2022-07-01T16:39:46;5.35;;;1.65;;
41829;SDS011;38614;43.472;23.936;2022-07-01T16:42:46;7.28;;;1.23;;
41829;SDS011;38614;43.472;23.936;2022-07-01T16:45:35;5.05;;;1.15;;
41829;SDS011;38614;43.472;23.936;2022-07-01T16:48:25;3.28;;;1.17;;
41829;SDS011;38614;43.472;23.936;2022-07-01T16:51:19;6.85;;;2.10;;
41829;SDS011;38614;43.472;23.936;2022-07-01T16:54:13;8.15;;;1.45;;
41829;SDS011;38614;43.472;23.936;2022-07-01T16:57:12;5.20;;;1.58;;
41829;SDS011;38614;43.472;23.936;2022-07-01T17:00:04;7.70;;;1.52;;
41829;SDS011;38614;43.472;23.936;2022-07-01T17:02:54;4.60;;;1.17;;
41829;SDS011;38614;43.472;23.936;2022-07-01T17:05:44;8.33;;;2.30;;
41829;SDS011;38614;43.472;23.936;2022-07-01T17:08:36;5.18;;;1.75;;
41829;SDS011;38614;43.472;23.936;2022-07-01T17:11:25;5.97;;;1.13;;
41829;SDS011;38614;43.472;23.936;2022-07-01T17:14:15;5.40;;;1.38;;